Time;durP1;ratioP1;P1;durP2;ratioP2;P2;SDS_P1;SDS_P2;PMS_P1;PMS_P2;Temp;Humidity;BMP_temperature;BMP_pressure;BME280_temperature;BME280_humidity;BME280_pressure;Samples;Min_cycle;Max_cycle;Signal;HPM_P1;HPM_P2
2020/12/09 00:01:29;;;;;;;27.40;16.05;;;;;;;-2.09;100.00;101585.31;4992631;28;20092;-79
2020/12/09 00:03:56;;;;;;;25.10;14.65;;;;;;;-2.09;100.00;101587.06;4992859;28;20472;-78
2020/12/09 00:06:22;;;;;;;19.52;12.13;;;;;;;-2.15;100.00;101596.13;4977412;28;20049;-77
2020/12/09 00:08:47;;;;;;;20.35;10.23;;;;;;;-2.20;100.00;101597.38;4992805;28;20035;-77
2020/12/09 00:11:13;;;;;;;29.10;18.83;;;;;;;-2.19;100.00;101601.63;4992769;28;20031;-78
2020/12/09 00:13:38;;;;;;;131.52;43.75;;;;;;;-2.18;100.00;101598.94;4992277;28;20061;-78
2020/12/09 00:16:04;;;;;;;35.40;16.75;;;;;;;-2.17;100.00;101598.00;4992625;28;20038;-78
2020/12/09 00:18:30;;;;;;;36.17;23.27;;;;;;;-2.18;100.00;101600.69;4976255;28;20042;-78
2020/12/09 00:20:55;;;;;;;38.33;24.30;;;;;;;-2.18;100.00;101593.75;4992746;28;20037;-78
2020/12/09 00:23:20;;;;;;;16.13;9.98;;;;;;;-2.21;100.00;101601.75;5005020;28;20398;-78
2020/12/09 00:25:46;;;;;;;21.02;10.43;;;;;;;-2.23;100.00;101605.38;4976714;28;20026;-77
2020/12/09 00:28:11;;;;;;;30.52;17.38;;;;;;;-2.21;100.00;101604.34;4992545;28;20038;-78
2020/12/09 00:30:37;;;;;;;32.55;18.20;;;;;;;-2.19;100.00;101610.28;4992195;28;20034;-79
2020/12/09 00:33:02;;;;;;;32.03;19.33;;;;;;;-2.20;100.00;101608.63;4977032;28;20037;-78
2020/12/09 00:35:28;;;;;;;22.70;11.05;;;;;;;-2.24;100.00;101603.69;4977369;28;20110;-78
2020/12/09 00:37:53;;;;;;;22.17;9.25;;;;;;;-2.17;100.00;101612.78;4992196;28;20125;-78
2020/12/09 00:40:19;;;;;;;20.65;9.02;;;;;;;-2.20;100.00;101615.59;4992060;28;20034;-78
2020/12/09 00:42:45;;;;;;;20.95;10.93;;;;;;;-2.20;100.00;101600.81;4992151;28;20062;-78
2020/12/09 00:45:10;;;;;;;20.15;9.70;;;;;;;-2.26;100.00;101606.41;4992080;28;20439;-78
2020/12/09 00:47:40;;;;;;;21.80;10.88;;;;;;;-2.25;100.00;101605.47;4976811;28;20034;-78
2020/12/09 00:52:38;;;;;;;19.00;9.18;;;;;;;-2.25;100.00;101607.25;4976640;28;20035;-78
2020/12/09 00:55:04;;;;;;;19.88;9.63;;;;;;;-2.20;100.00;101607.78;4976676;28;20420;-79
2020/12/09 00:57:29;;;;;;;19.13;9.90;;;;;;;-2.25;100.00;101609.84;4992079;28;20073;-78
2020/12/09 00:59:55;;;;;;;22.13;9.95;;;;;;;-2.28;100.00;101608.28;4991935;28;20035;-78
2020/12/09 01:02:20;;;;;;;23.85;12.07;;;;;;;-2.25;100.00;101600.28;4976265;28;20035;-78
2020/12/09 01:04:49;;;;;;;24.58;13.30;;;;;;;-2.23;100.00;101595.81;5007644;28;20030;-78
2020/12/09 01:07:21;;;;;;;24.65;12.73;;;;;;;-2.27;100.00;101583.09;4991462;28;20038;-78
2020/12/09 01:09:46;;;;;;;21.30;10.20;;;;;;;-2.22;100.00;101581.84;4976643;28;20148;-78
2020/12/09 01:12:12;;;;;;;23.80;9.68;;;;;;;-2.25;100.00;101582.06;4991702;28;20492;-78
2020/12/09 01:14:38;;;;;;;22.40;9.77;;;;;;;-2.21;100.00;101593.94;5002936;28;20047;-78
2020/12/09 01:17:04;;;;;;;22.05;10.40;;;;;;;-2.23;100.00;101597.59;4976265;28;20026;-78
2020/12/09 01:19:29;;;;;;;28.15;11.57;;;;;;;-2.28;100.00;101586.63;5002269;28;20030;-78
2020/12/09 01:21:55;;;;;;;22.65;10.57;;;;;;;-2.28;100.00;101584.84;4991554;28;20539;-78
2020/12/09 01:24:21;;;;;;;25.17;11.48;;;;;;;-2.25;100.00;101582.06;4991190;28;20039;-78
2020/12/09 01:26:47;;;;;;;24.35;11.65;;;;;;;-2.28;100.00;101581.44;4976264;28;20035;-78
2020/12/09 01:29:13;;;;;;;24.35;11.40;;;;;;;-2.27;100.00;101583.09;4991403;28;20388;-78
2020/12/09 01:31:39;;;;;;;21.27;10.48;;;;;;;-2.28;100.00;101581.44;4991072;28;20034;-78
2020/12/09 01:34:04;;;;;;;19.80;9.80;;;;;;;-2.30;100.00;101578.91;4975978;28;20381;-78
2020/12/09 01:36:30;;;;;;;23.92;10.60;;;;;;;-2.25;100.00;101573.41;4990937;28;20034;-78
2020/12/09 01:38:55;;;;;;;21.95;9.40;;;;;;;-2.25;100.00;101571.63;4991184;28;20118;-78
2020/12/09 01:41:24;;;;;;;24.00;10.93;;;;;;;-2.24;100.00;101567.25;4991087;28;20396;-78
2020/12/09 01:43:51;;;;;;;29.73;12.02;;;;;;;-2.25;100.00;101574.25;4975965;28;20114;-78
2020/12/09 01:46:31;;;;;;;25.80;12.45;;;;;;;-2.24;100.00;101564.66;4975777;28;20104;-78
2020/12/09 01:49:00;;;;;;;26.05;10.25;;;;;;;-2.26;100.00;101567.38;4972752;28;20038;-78
2020/12/09 01:51:27;;;;;;;24.67;11.27;;;;;;;-2.31;100.00;101577.25;4975671;28;20357;-78
2020/12/09 01:53:55;;;;;;;25.75;12.52;;;;;;;-2.27;100.00;101583.09;4990851;28;20041;-78
2020/12/09 01:56:21;;;;;;;26.15;12.80;;;;;;;-2.28;100.00;101579.66;4990869;28;20030;-78
2020/12/09 01:58:50;;;;;;;22.40;11.05;;;;;;;-2.29;100.00;101578.00;4990540;28;20129;-78
2020/12/09 02:01:17;;;;;;;30.23;12.95;;;;;;;-2.32;100.00;101568.63;4990584;28;20033;-78
2020/12/09 02:03:42;;;;;;;26.98;11.48;;;;;;;-2.35;100.00;101568.81;4990624;28;20093;-78
2020/12/09 02:06:08;;;;;;;29.42;12.38;;;;;;;-2.33;100.00;101576.50;4996050;28;20026;-78
2020/12/09 02:08:33;;;;;;;28.52;12.27;;;;;;;-2.26;100.00;101559.56;4990068;28;20035;-79
2020/12/09 02:11:00;;;;;;;29.70;12.15;;;;;;;-2.32;100.00;101563.41;4990544;28;20030;-78
2020/12/09 02:13:26;;;;;;;28.77;11.25;;;;;;;-2.31;100.00;101559.03;4974948;28;20047;-78
2020/12/09 02:15:52;;;;;;;25.30;11.98;;;;;;;-2.25;100.00;101555.19;4989360;28;20031;-78
2020/12/09 02:18:18;;;;;;;24.95;10.30;;;;;;;-2.25;100.00;101548.22;4990073;28;20035;-79
2020/12/09 02:20:44;;;;;;;25.05;11.15;;;;;;;-2.25;100.00;101550.00;4988894;28;20022;-77
2020/12/09 02:23:10;;;;;;;27.10;12.38;;;;;;;-2.27;100.00;101550.06;4990096;28;20422;-78
2020/12/09 02:25:35;;;;;;;30.38;15.98;;;;;;;-2.25;100.00;101547.38;4990324;28;20048;-78
2020/12/09 02:28:00;;;;;;;29.48;11.43;;;;;;;-2.25;100.00;101565.59;4990576;28;20061;-78
2020/12/09 02:30:26;;;;;;;28.73;12.52;;;;;;;-2.23;100.00;101554.16;4990491;28;20097;-78
2020/12/09 02:32:51;;;;;;;32.65;16.83;;;;;;;-2.23;100.00;101553.34;5006478;28;20114;-78
2020/12/09 02:35:17;;;;;;;37.00;18.73;;;;;;;-2.28;100.00;101547.59;4990346;28;20460;-78
2020/12/09 02:37:42;;;;;;;41.72;23.35;;;;;;;-2.26;100.00;101553.53;4990243;28;20387;-78
2020/12/09 02:40:07;;;;;;;35.85;19.05;;;;;;;-2.25;100.00;101544.78;4990060;28;20027;-78
2020/12/09 02:42:33;;;;;;;49.05;24.20;;;;;;;-2.29;100.00;101543.34;5000192;28;20031;-77
2020/12/09 02:44:58;;;;;;;55.58;30.73;;;;;;;-2.31;100.00;101549.47;4989922;28;20019;-78
2020/12/09 02:47:24;;;;;;;70.15;39.20;;;;;;;-2.25;100.00;101552.59;4992336;28;20499;-78
2020/12/09 02:49:49;;;;;;;68.57;36.28;;;;;;;-2.19;100.00;101554.78;4989818;28;20117;-78
2020/12/09 02:52:14;;;;;;;41.67;21.75;;;;;;;-2.25;100.00;101550.00;5001690;28;20060;-78
2020/12/09 02:54:40;;;;;;;45.38;22.95;;;;;;;-2.21;100.00;101543.63;4989838;28;20113;-78
2020/12/09 02:57:05;;;;;;;56.05;29.52;;;;;;;-2.23;100.00;101538.53;4994891;28;20026;-78
2020/12/09 02:59:31;;;;;;;37.17;18.77;;;;;;;-2.21;100.00;101543.63;4989528;28;20050;-78
2020/12/09 03:01:56;;;;;;;49.58;24.48;;;;;;;-2.21;100.00;101535.81;5004011;28;20031;-78
2020/12/09 03:04:21;;;;;;;31.52;16.27;;;;;;;-2.19;100.00;101540.00;4989683;28;20532;-78
2020/12/09 03:06:47;;;;;;;34.00;16.30;;;;;;;-2.15;100.00;101535.41;4989789;28;20031;-78
2020/12/09 03:09:12;;;;;;;42.38;21.77;;;;;;;-2.23;100.00;101530.75;4989584;28;20121;-79
2020/12/09 03:11:38;;;;;;;40.88;20.20;;;;;;;-2.13;100.00;101533.53;4974171;28;20026;-78
2020/12/09 03:14:03;;;;;;;54.72;29.23;;;;;;;-2.08;100.00;101539.28;5003498;28;20470;-78
2020/12/09 03:16:29;;;;;;;39.35;21.05;;;;;;;-2.10;100.00;101541.16;4974209;28;20034;-78
2020/12/09 03:18:54;;;;;;;45.55;26.55;;;;;;;-2.14;100.00;101542.31;4996557;28;20037;-78
2020/12/09 03:21:20;;;;;;;76.68;39.33;;;;;;;-2.15;100.00;101530.22;4989383;28;20030;-77
2020/12/09 03:23:45;;;;;;;33.65;17.20;;;;;;;-2.12;100.00;101543.00;4989323;28;20447;-78
2020/12/09 03:26:11;;;;;;;30.92;12.88;;;;;;;-2.13;100.00;101536.16;4989464;28;20114;-78
2020/12/09 03:28:36;;;;;;;31.60;12.98;;;;;;;-2.10;100.00;101533.34;4989547;28;20030;-79
2020/12/09 03:31:05;;;;;;;27.80;12.35;;;;;;;-2.17;100.00;101527.72;4996682;28;20045;-78
2020/12/09 03:33:32;;;;;;;27.75;11.60;;;;;;;-2.12;100.00;101523.06;4978020;28;20030;-79
2020/12/09 03:35:59;;;;;;;27.45;13.07;;;;;;;-2.13;100.00;101523.97;4993355;28;20027;-78
2020/12/09 03:38:24;;;;;;;24.50;10.50;;;;;;;-2.12;100.00;101530.84;4993334;28;20038;-79
2020/12/09 03:40:50;;;;;;;22.83;10.48;;;;;;;-2.13;100.00;101525.75;4993341;28;20114;-78
2020/12/09 03:43:16;;;;;;;21.92;10.43;;;;;;;-2.09;100.00;101533.25;4977888;28;20376;-78
2020/12/09 03:45:42;;;;;;;25.58;12.18;;;;;;;-2.13;100.00;101521.38;4977642;28;20399;-78
2020/12/09 03:48:08;;;;;;;22.27;9.45;;;;;;;-2.10;100.00;101515.13;4993254;28;20042;-78
2020/12/09 03:50:34;;;;;;;19.92;10.00;;;;;;;-2.13;100.00;101516.16;4977831;28;20030;-78
2020/12/09 03:53:00;;;;;;;21.90;10.00;;;;;;;-2.20;100.00;101521.91;4977877;28;20101;-78
2020/12/09 03:55:26;;;;;;;20.73;9.95;;;;;;;-2.18;100.00;101514.78;4976591;28;20031;-78
2020/12/09 03:57:51;;;;;;;26.98;11.98;;;;;;;-2.18;100.00;101518.25;4977796;28;20467;-78
2020/12/09 04:00:17;;;;;;;20.95;9.88;;;;;;;-2.22;100.00;101529.78;4993072;28;20031;-78
2020/12/09 04:02:43;;;;;;;23.40;10.73;;;;;;;-2.20;100.00;101530.53;4977579;28;20043;-78
2020/12/09 04:05:09;;;;;;;22.77;10.05;;;;;;;-2.16;100.00;101531.97;4993017;28;20062;-78
2020/12/09 04:07:34;;;;;;;25.42;11.07;;;;;;;-2.10;100.00;101533.34;4992745;28;20062;-78
2020/12/09 04:10:01;;;;;;;32.00;15.23;;;;;;;-2.08;100.00;101536.69;5006559;28;20520;-78
2020/12/09 04:12:26;;;;;;;27.10;12.25;;;;;;;-2.12;100.00;101545.63;4992499;28;20038;-78
2020/12/09 04:14:52;;;;;;;27.30;12.15;;;;;;;-2.16;100.00;101538.97;4977035;28;20043;-78
2020/12/09 04:17:19;;;;;;;28.58;11.77;;;;;;;-2.10;100.00;101539.38;4991766;28;20383;-78
2020/12/09 04:19:45;;;;;;;28.38;11.27;;;;;;;-2.18;100.00;101535.63;4991746;28;20042;-77
2020/12/09 04:22:11;;;;;;;41.67;24.05;;;;;;;-2.18;100.00;101533.00;4992169;28;20096;-78
2020/12/09 04:24:36;;;;;;;32.03;18.45;;;;;;;-2.21;100.00;101539.28;4992727;28;20031;-78
2020/12/09 04:27:02;;;;;;;29.80;14.20;;;;;;;-2.19;100.00;101541.78;4977159;28;20073;-78
2020/12/09 04:29:27;;;;;;;23.55;13.27;;;;;;;-2.22;100.00;101541.97;4991717;28;20030;-79
2020/12/09 04:31:52;;;;;;;29.88;14.27;;;;;;;-2.17;100.00;101526.91;4979043;28;20023;-78
2020/12/09 04:34:19;;;;;;;49.10;22.55;;;;;;;-2.16;100.00;101521.56;4912181;28;20060;-78
2020/12/09 04:36:46;;;;;;;41.60;23.48;;;;;;;-2.18;100.00;101507.84;4992221;28;20121;-78
2020/12/09 04:39:12;;;;;;;32.58;16.80;;;;;;;-2.18;100.00;101522.59;4992578;28;20183;-78
2020/12/09 04:41:37;;;;;;;37.22;19.08;;;;;;;-2.20;100.00;101514.91;4977221;28;20117;-78
2020/12/09 04:44:03;;;;;;;39.38;20.27;;;;;;;-2.19;100.00;101511.38;4991773;28;20037;-79
2020/12/09 04:46:29;;;;;;;35.17;18.58;;;;;;;-2.17;100.00;101506.06;4976230;28;20117;-78
2020/12/09 04:48:57;;;;;;;67.85;29.05;;;;;;;-2.18;100.00;101507.00;4992186;28;20518;-78
2020/12/09 04:52:00;;;;;;;38.35;19.80;;;;;;;-2.15;100.00;101502.44;4976563;28;20478;-78
2020/12/09 04:54:40;;;;;;;50.17;24.02;;;;;;;-2.16;100.00;101505.13;4977043;28;20433;-78
2020/12/09 04:57:13;;;;;;;36.22;19.60;;;;;;;-2.15;100.00;101505.03;4992234;28;20058;-78
2020/12/09 04:59:41;;;;;;;39.38;20.92;;;;;;;-2.14;100.00;101500.66;4992186;28;20057;-78
2020/12/09 05:02:09;;;;;;;55.20;32.92;;;;;;;-2.16;100.00;101508.56;4975540;28;20372;-78
2020/12/09 05:04:36;;;;;;;48.85;29.45;;;;;;;-2.16;100.00;101516.38;4976940;28;20439;-79
2020/12/09 05:07:10;;;;;;;33.00;19.02;;;;;;;-2.17;100.00;101508.69;4992083;28;20109;-77
2020/12/09 05:09:46;;;;;;;38.90;21.83;;;;;;;-2.16;100.00;101502.53;4992030;28;20041;-78
2020/12/09 05:12:14;;;;;;;37.88;19.90;;;;;;;-2.19;100.00;101498.34;4975460;28;20109;-78
2020/12/09 05:14:47;;;;;;;38.35;20.27;;;;;;;-2.20;100.00;101503.69;4991190;28;20039;-78
2020/12/09 05:17:21;;;;;;;41.63;23.27;;;;;;;-2.23;100.00;101503.88;4991575;28;20455;-78
2020/12/09 05:19:48;;;;;;;33.78;17.67;;;;;;;-2.15;100.00;101509.38;4991485;28;20464;-78
2020/12/09 05:22:16;;;;;;;34.40;18.27;;;;;;;-2.19;100.00;101516.56;4975382;28;20027;-78
2020/12/09 05:24:42;;;;;;;36.58;17.33;;;;;;;-2.18;100.00;101520.88;4991274;28;20015;-78
2020/12/09 05:27:08;;;;;;;28.67;14.48;;;;;;;-2.14;100.00;101534.50;4976203;28;20033;-78
2020/12/09 05:29:33;;;;;;;35.35;17.65;;;;;;;-2.20;100.00;101540.94;4976103;28;20105;-78
2020/12/09 05:32:01;;;;;;;31.10;15.18;;;;;;;-2.17;100.00;101558.13;4991277;28;20033;-77
2020/12/09 05:34:34;;;;;;;29.60;15.02;;;;;;;-2.15;100.00;101553.63;4975495;28;20468;-78
2020/12/09 05:37:02;;;;;;;32.08;13.82;;;;;;;-2.09;100.00;101553.22;4976034;28;20038;-78
2020/12/09 05:39:28;;;;;;;36.97;16.63;;;;;;;-2.11;100.00;101540.31;4975932;28;20031;-78
2020/12/09 05:41:53;;;;;;;46.78;24.15;;;;;;;-2.13;100.00;101538.75;4975893;28;20030;-78
2020/12/09 05:44:24;;;;;;;38.20;17.77;;;;;;;-2.12;100.00;101530.00;4990997;28;20371;-78
2020/12/09 05:47:02;;;;;;;51.72;27.25;;;;;;;-2.11;100.00;101523.88;4976314;28;20161;-78
2020/12/09 05:49:32;;;;;;;65.68;37.72;;;;;;;-2.15;100.00;101522.41;4991054;28;20113;-78
2020/12/09 05:52:14;;;;;;;75.47;33.53;;;;;;;-2.15;100.00;101515.44;4990999;28;20062;-78
2020/12/09 05:54:48;;;;;;;105.80;51.53;;;;;;;-2.11;100.00;101511.69;4989367;28;20034;-77
2020/12/09 05:57:19;;;;;;;52.65;25.42;;;;;;;-2.11;100.00;101493.47;4975789;28;20082;-79
2020/12/09 05:59:46;;;;;;;63.08;31.40;;;;;;;-2.11;100.00;101487.44;4990712;28;20537;-78
2020/12/09 06:02:16;;;;;;;71.50;36.72;;;;;;;-2.13;100.00;101497.09;4990593;28;20069;-78
2020/12/09 06:04:55;;;;;;;63.08;32.38;;;;;;;-2.10;100.00;101500.31;5006289;28;20460;-78
2020/12/09 06:07:23;;;;;;;41.78;19.67;;;;;;;-2.14;100.00;101504.09;4990437;28;20105;-78
2020/12/09 06:10:05;;;;;;;40.42;19.05;;;;;;;-2.14;100.00;101511.91;4990384;28;20034;-79
2020/12/09 06:13:00;;;;;;;48.22;20.48;;;;;;;-2.09;100.00;101525.44;4975003;28;20039;-78
2020/12/09 06:15:30;;;;;;;44.97;19.17;;;;;;;-2.08;100.00;101529.69;4990310;28;20050;-78
2020/12/09 06:18:10;;;;;;;43.63;20.35;;;;;;;-2.04;100.00;101532.94;4990436;28;20022;-78
2020/12/09 06:20:38;;;;;;;89.43;45.70;;;;;;;-2.09;100.00;101521.97;4990158;28;20039;-78
2020/12/09 06:23:16;;;;;;;56.00;26.48;;;;;;;-2.09;100.00;101533.25;4975091;28;20042;-78
2020/12/09 06:25:42;;;;;;;50.63;20.60;;;;;;;-2.01;100.00;101537.91;4990330;28;20023;-78
2020/12/09 06:28:10;;;;;;;47.10;18.73;;;;;;;-2.03;100.00;101531.16;4974993;28;20030;-78
2020/12/09 06:30:35;;;;;;;41.45;17.05;;;;;;;-2.05;100.00;101527.84;4974839;28;20034;-78
2020/12/09 06:33:00;;;;;;;48.28;17.38;;;;;;;-2.01;100.00;101535.31;4974752;28;20470;-78
2020/12/09 06:35:26;;;;;;;46.22;17.40;;;;;;;-1.99;100.00;101543.03;4990192;28;20442;-78
2020/12/09 06:38:09;;;;;;;40.22;15.65;;;;;;;-1.91;100.00;101551.97;4990259;28;20116;-78
2020/12/09 06:40:35;;;;;;;45.78;16.33;;;;;;;-1.91;100.00;101548.53;5006223;28;20491;-78
2020/12/09 06:43:13;;;;;;;35.42;12.70;;;;;;;-1.92;100.00;101545.09;5006419;28;20061;-78
2020/12/09 06:45:44;;;;;;;42.88;19.77;;;;;;;-1.91;100.00;101551.13;4974771;28;20027;-78
2020/12/09 06:48:14;;;;;;;41.45;18.17;;;;;;;-1.81;100.00;101549.59;4996140;28;20037;-78
2020/12/09 06:50:44;;;;;;;41.55;19.92;;;;;;;-1.82;100.00;101544.47;4998794;28;20093;-78
2020/12/09 06:53:18;;;;;;;51.78;24.42;;;;;;;-1.79;100.00;101554.69;4982761;28;20523;-78
2020/12/09 06:55:45;;;;;;;48.58;22.98;;;;;;;-1.85;100.00;101553.31;4998485;28;20176;-78
2020/12/09 06:58:24;;;;;;;140.23;60.92;;;;;;;-1.75;100.00;101556.16;5000093;28;20034;-78
2020/12/09 07:01:06;;;;;;;54.55;30.13;;;;;;;-1.78;100.00;101548.56;4984636;28;20108;-78
2020/12/09 07:03:37;;;;;;;58.65;32.70;;;;;;;-1.69;100.00;101550.53;5000896;28;20117;-78
2020/12/09 07:06:21;;;;;;;77.15;42.88;;;;;;;-1.58;100.00;101534.97;4982635;28;20463;-77
2020/12/09 07:08:48;;;;;;;47.38;21.30;;;;;;;-1.46;100.00;101534.09;4981902;28;20040;-78
2020/12/09 07:11:13;;;;;;;57.55;28.38;;;;;;;-1.44;100.00;101529.63;4999968;28;20022;-77
2020/12/09 07:13:39;;;;;;;87.32;51.83;;;;;;;-1.34;100.00;101521.16;4983161;28;20049;-77
2020/12/09 07:16:05;;;;;;;72.20;39.90;;;;;;;-1.39;100.00;101516.28;4984780;28;20047;-79
2020/12/09 07:18:32;;;;;;;75.13;43.72;;;;;;;-1.30;100.00;101509.56;4988298;28;20451;-78
2020/12/09 07:20:58;;;;;;;42.28;18.58;;;;;;;-1.34;100.00;101514.16;4970426;28;20029;-78
2020/12/09 07:23:24;;;;;;;50.05;31.25;;;;;;;-1.43;100.00;101513.03;4977707;28;20045;-78
2020/12/09 07:25:53;;;;;;;66.40;35.10;;;;;;;-1.40;100.00;101507.59;4989386;28;20111;-78
2020/12/09 07:28:19;;;;;;;67.57;36.15;;;;;;;-1.46;100.00;101502.00;4974233;28;20097;-78
2020/12/09 07:30:45;;;;;;;83.32;49.90;;;;;;;-1.31;100.00;101493.09;4994554;28;20031;-78
2020/12/09 07:33:15;;;;;;;48.83;29.48;;;;;;;-1.41;100.00;101484.28;4989352;28;20058;-78
2020/12/09 07:35:42;;;;;;;84.03;49.03;;;;;;;-1.33;100.00;101481.97;4981171;28;20034;-78
2020/12/09 07:38:07;;;;;;;88.03;54.45;;;;;;;-1.30;100.00;101471.31;4974529;28;20445;-78
2020/12/09 07:40:34;;;;;;;73.82;46.13;;;;;;;-1.16;100.00;101475.53;4925969;28;20081;-78
2020/12/09 07:43:10;;;;;;;58.95;31.67;;;;;;;-1.05;100.00;101475.56;4987626;28;20077;-78
2020/12/09 07:45:39;;;;;;;117.22;72.18;;;;;;;-0.92;100.00;101486.75;4991628;28;20023;-77
2020/12/09 07:48:13;;;;;;;48.10;24.63;;;;;;;-0.94;100.00;101496.50;5001385;28;20037;-78
2020/12/09 07:50:40;;;;;;;56.03;27.13;;;;;;;-1.08;100.00;101503.66;4982356;28;20038;-78
2020/12/09 07:53:11;;;;;;;60.05;35.20;;;;;;;-1.11;100.00;101509.91;4989129;28;20125;-78
2020/12/09 07:55:37;;;;;;;41.60;21.17;;;;;;;-1.18;100.00;101506.06;4974517;28;20044;-78
2020/12/09 07:58:05;;;;;;;43.92;25.52;;;;;;;-1.15;100.00;101508.47;4982040;28;20138;-78
2020/12/09 08:00:42;;;;;;;78.75;47.05;;;;;;;-1.02;100.00;101505.81;4972153;28;20038;-78
2020/12/09 08:03:17;;;;;;;51.85;30.75;;;;;;;-0.97;100.00;101494.13;5001747;28;20038;-78
2020/12/09 08:05:43;;;;;;;37.83;16.67;;;;;;;-0.93;100.00;101479.06;4976487;28;20042;-78
2020/12/09 08:08:12;;;;;;;38.30;23.00;;;;;;;-0.89;100.00;101471.84;4991107;28;20034;-78
2020/12/09 08:10:39;;;;;;;38.35;24.05;;;;;;;-1.06;100.00;101476.53;4992970;28;20125;-79
2020/12/09 08:13:07;;;;;;;52.30;31.55;;;;;;;-1.02;100.00;101482.34;4994414;28;20023;-78
2020/12/09 08:15:35;;;;;;;31.15;16.98;;;;;;;-0.91;100.00;101492.81;4978352;28;20137;-78
2020/12/09 08:18:01;;;;;;;51.53;30.50;;;;;;;-0.97;100.00;101490.66;4976925;28;20511;-78
2020/12/09 08:20:28;;;;;;;49.47;30.00;;;;;;;-0.92;100.00;101501.59;4998563;28;20125;-77
2020/12/09 08:22:59;;;;;;;34.17;19.83;;;;;;;-0.75;100.00;101505.56;4981519;28;20034;-78
2020/12/09 08:25:27;;;;;;;41.42;23.35;;;;;;;-0.88;100.00;101500.41;4983033;28;20034;-78
2020/12/09 08:27:54;;;;;;;37.60;21.23;;;;;;;-0.96;100.00;101507.97;4982612;28;20042;-78
2020/12/09 08:30:25;;;;;;;55.22;29.90;;;;;;;-0.81;100.00;101514.69;4982201;28;20065;-78
2020/12/09 08:33:04;;;;;;;37.97;21.53;;;;;;;-0.95;100.00;101507.84;4978067;28;20026;-78
2020/12/09 08:35:51;;;;;;;45.20;26.13;;;;;;;-0.82;100.00;101501.75;4974285;28;20523;-77
2020/12/09 08:38:41;;;;;;;49.17;25.58;;;;;;;-0.84;100.00;101501.03;4988605;28;20058;-78
2020/12/09 08:41:15;;;;;;;34.20;17.70;;;;;;;-0.88;100.00;101489.16;4967137;28;20109;-78
2020/12/09 08:43:43;;;;;;;38.60;19.00;;;;;;;-0.89;100.00;101482.28;4988356;28;20030;-78
2020/12/09 08:46:11;;;;;;;40.67;18.92;;;;;;;-0.79;100.00;101488.47;4972714;28;20061;-78
2020/12/09 08:48:38;;;;;;;46.13;23.35;;;;;;;-0.82;100.00;101492.13;4969614;28;20041;-78
2020/12/09 08:51:05;;;;;;;46.40;26.58;;;;;;;-0.75;100.00;101495.97;4970194;28;20041;-78
2020/12/09 08:53:32;;;;;;;43.08;19.35;;;;;;;-0.82;100.00;101480.88;4964441;28;20034;-78
2020/12/09 08:55:57;;;;;;;41.08;20.52;;;;;;;-0.84;100.00;101486.22;4981146;28;20041;-78
2020/12/09 08:58:23;;;;;;;68.45;42.90;;;;;;;-0.80;100.00;101485.03;4968401;28;20387;-78
2020/12/09 09:00:49;;;;;;;48.45;26.20;;;;;;;-0.83;100.00;101467.00;4972121;28;20120;-78
2020/12/09 09:03:21;;;;;;;79.47;49.88;;;;;;;-0.72;100.00;101467.03;4967576;28;20030;-79
2020/12/09 09:05:51;;;;;;;66.40;43.38;;;;;;;-0.65;100.00;101456.16;4969901;28;20019;-78
2020/12/09 09:08:17;;;;;;;83.40;50.15;;;;;;;-0.55;100.00;101450.09;4968896;28;20113;-77
2020/12/09 09:10:43;;;;;;;53.35;36.00;;;;;;;-0.66;100.00;101441.44;4970712;28;20034;-78
2020/12/09 09:13:10;;;;;;;65.93;42.47;;;;;;;-0.62;100.00;101442.88;4967889;28;20031;-78
2020/12/09 09:15:38;;;;;;;54.15;29.77;;;;;;;-0.58;100.00;101446.91;4984289;28;20030;-78
2020/12/09 09:18:05;;;;;;;54.72;27.33;;;;;;;-0.53;100.00;101461.28;4968804;28;20443;-78
2020/12/09 09:20:31;;;;;;;60.47;32.50;;;;;;;-0.41;100.00;101456.91;4970394;28;20029;-77
2020/12/09 09:22:57;;;;;;;60.40;31.98;;;;;;;-0.54;100.00;101451.78;4968601;28;20381;-77
2020/12/09 09:25:24;;;;;;;64.45;35.05;;;;;;;-0.48;100.00;101440.06;4967368;28;20362;-77
2020/12/09 09:27:50;;;;;;;48.08;25.42;;;;;;;-0.55;100.00;101447.50;4968966;28;20066;-78
2020/12/09 09:30:16;;;;;;;59.13;35.38;;;;;;;-0.68;100.00;101444.16;4965786;28;20137;-77
2020/12/09 09:32:42;;;;;;;56.67;31.88;;;;;;;-0.65;100.00;101454.38;4984597;28;20030;-78
2020/12/09 09:35:07;;;;;;;63.17;32.88;;;;;;;-0.58;100.00;101450.34;4983289;28;20093;-77
2020/12/09 09:37:33;;;;;;;62.78;33.35;;;;;;;-0.61;100.00;101449.75;4967384;28;20035;-77
2020/12/09 09:39:58;;;;;;;96.25;55.22;;;;;;;-0.64;100.00;101455.19;4969869;28;20069;-78
2020/12/09 09:42:24;;;;;;;79.68;45.45;;;;;;;-0.64;100.00;101445.59;4968821;28;20510;-77
2020/12/09 09:44:50;;;;;;;103.72;61.17;;;;;;;-0.63;100.00;101446.44;4968365;28;20117;-77
2020/12/09 09:47:15;;;;;;;79.97;46.90;;;;;;;-0.66;100.00;101441.44;4969567;28;20031;-77
2020/12/09 09:49:41;;;;;;;82.00;42.75;;;;;;;-0.66;100.00;101449.28;4967963;28;20039;-78
2020/12/09 09:52:07;;;;;;;68.00;37.90;;;;;;;-0.74;100.00;101445.44;4971609;28;20042;-78
2020/12/09 09:54:33;;;;;;;80.10;43.22;;;;;;;-0.71;100.00;101440.00;4971570;28;20042;-78
2020/12/09 09:56:58;;;;;;;62.47;32.10;;;;;;;-0.76;100.00;101436.06;4989014;28;20031;-78
2020/12/09 09:59:23;;;;;;;87.40;41.65;;;;;;;-0.60;100.00;101436.59;4972790;28;20042;-77
2020/12/09 10:01:51;;;;;;;88.47;44.03;;;;;;;-0.53;100.00;101437.78;4969653;28;20046;-78
2020/12/09 10:04:17;;;;;;;83.40;37.47;;;;;;;-0.56;100.00;101437.19;4966548;28;20034;-78
2020/12/09 10:06:43;;;;;;;34.80;12.88;;;;;;;4.56;89.24;101416.50;4974068;28;20037;-79
2020/12/09 10:09:09;;;;;;;68.97;31.52;;;;;;;-0.12;100.00;101431.19;4988066;28;20026;-79
2020/12/09 10:11:41;;;;;;;89.32;39.10;;;;;;;-0.49;100.00;101417.50;4986454;28;20117;-79
2020/12/09 10:14:07;;;;;;;87.68;41.25;;;;;;;-0.53;100.00;101410.88;4972246;28;20050;-80
2020/12/09 10:16:33;;;;;;;105.35;49.83;;;;;;;-0.49;100.00;101405.28;4979780;28;20084;-79
2020/12/09 10:18:59;;;;;;;94.63;36.15;;;;;;;-0.36;100.00;101402.56;4986770;28;20456;-80
2020/12/09 10:21:31;;;;;;;111.70;45.50;;;;;;;-0.47;100.00;101384.28;4972653;28;20027;-80
2020/12/09 10:23:58;;;;;;;109.20;50.05;;;;;;;-0.50;100.00;101393.19;4971453;28;20121;-79
2020/12/09 10:26:43;;;;;;;79.88;34.67;;;;;;;-0.64;100.00;101401.22;4986654;28;20034;-79
2020/12/09 10:29:09;;;;;;;100.10;38.60;;;;;;;-0.52;100.00;101384.63;4984484;28;20078;-80
2020/12/09 10:31:36;;;;;;;101.43;47.38;;;;;;;-0.40;100.00;101388.09;4971710;28;20042;-79
2020/12/09 10:34:02;;;;;;;85.05;36.85;;;;;;;-0.56;100.00;101395.44;4968923;28;21229;-79
2020/12/09 10:36:27;;;;;;;108.85;48.95;;;;;;;-0.38;100.00;101388.81;4972617;28;20033;-80
2020/12/09 10:38:53;;;;;;;87.85;33.65;;;;;;;-0.53;100.00;101389.97;4986608;28;20388;-80
2020/12/09 10:41:19;;;;;;;98.68;38.88;;;;;;;-0.29;100.00;101382.03;4969625;28;20030;-79
2020/12/09 10:43:46;;;;;;;100.90;39.90;;;;;;;-0.37;100.00;101379.19;4291059;28;10000468;-79
2020/12/09 10:46:11;;;;;;;106.13;48.38;;;;;;;-0.37;100.00;101368.75;4983847;28;20037;-80
2020/12/09 10:48:37;;;;;;;157.40;70.25;;;;;;;-0.30;100.00;101375.19;4984352;28;20125;-80
2020/12/09 10:51:05;;;;;;;130.13;60.08;;;;;;;-0.21;100.00;101381.44;4984695;28;20039;-79
2020/12/09 10:53:31;;;;;;;89.38;39.95;;;;;;;0.06;100.00;101368.00;4986005;28;20030;-79
2020/12/09 10:55:59;;;;;;;101.65;39.80;;;;;;;-0.33;100.00;101364.97;4970381;28;20046;-79
2020/12/09 10:58:26;;;;;;;101.50;38.97;;;;;;;-0.23;100.00;101371.13;4969513;28;20039;-80
2020/12/09 11:00:53;;;;;;;109.47;41.38;;;;;;;-0.21;100.00;101352.72;4981772;28;21280;-80
2020/12/09 11:03:18;;;;;;;118.18;53.42;;;;;;;-0.18;100.00;101345.50;4985845;28;20455;-80
2020/12/09 11:05:45;;;;;;;129.95;59.55;;;;;;;-0.25;100.00;101336.47;4970912;28;20027;-80
2020/12/09 11:08:10;;;;;;;119.07;49.47;;;;;;;-0.14;100.00;101341.69;4969818;28;20030;-80